Time;durP1;ratioP1;P1;durP2;ratioP2;P2;SDS_P1;SDS_P2;PMS_P1;PMS_P2;Temp;Humidity;BMP_temperature;BMP_pressure;BME280_temperature;BME280_humidity;BME280_pressure;Samples;Min_cycle;Max_cycle;Signal;HPM_P1;HPM_P2
2024/02/18 00:01:32;;;;;;;22.17;17.27;;;;;;;9.13;100.00;103325.06;5010973;28;20440;-74
2024/02/18 00:03:58;;;;;;;25.43;16.00;;;;;;;9.19;100.00;103340.59;5014932;28;20220;-74
2024/02/18 00:06:24;;;;;;;20.77;16.10;;;;;;;8.96;100.00;103290.81;5010998;28;20507;-74
2024/02/18 00:08:49;;;;;;;27.90;17.23;;;;;;;8.74;100.00;103256.97;5015643;28;20184;-75
2024/02/18 00:11:16;;;;;;;25.00;15.77;;;;;;;9.02;100.00;103327.78;4999045;28;20760;-74
2024/02/18 00:13:41;;;;;;;22.50;17.30;;;;;;;8.47;100.00;103230.66;5014595;28;20197;-74
2024/02/18 00:16:07;;;;;;;22.10;15.93;;;;;;;9.21;100.00;103338.66;4997878;28;20485;-75
2024/02/18 00:18:32;;;;;;;21.80;16.60;;;;;;;8.90;100.00;103292.16;5014790;28;20185;-74
2024/02/18 00:20:57;;;;;;;23.70;16.23;;;;;;;9.05;100.00;103309.66;5017632;28;20285;-74
2024/02/18 00:23:23;;;;;;;22.33;16.17;;;;;;;9.04;100.00;103307.09;5016401;28;20193;-74
2024/02/18 00:25:49;;;;;;;23.73;15.83;;;;;;;8.97;100.00;103280.00;5015320;28;20188;-73
2024/02/18 00:28:14;;;;;;;25.03;17.53;;;;;;;9.14;100.00;103297.31;4996401;28;20520;-74
2024/02/18 00:30:40;;;;;;;26.90;18.23;;;;;;;8.90;100.00;103261.88;5006653;28;20573;-74
2024/02/18 00:33:05;;;;;;;28.53;18.97;;;;;;;8.32;100.00;103145.34;5015970;28;20562;-74
2024/02/18 00:35:30;;;;;;;26.90;17.80;;;;;;;8.60;100.00;103207.28;5014224;28;20193;-74
2024/02/18 00:37:56;;;;;;;24.30;19.13;;;;;;;9.04;100.00;103269.59;5017515;28;20196;-74
2024/02/18 00:40:21;;;;;;;26.53;19.13;;;;;;;8.72;100.00;103206.25;5016920;28;20192;-74
2024/02/18 00:42:47;;;;;;;26.93;19.07;;;;;;;9.13;100.00;103270.66;5011749;28;20666;-74
2024/02/18 00:45:13;;;;;;;25.57;19.57;;;;;;;8.61;100.00;103214.31;5015329;28;20184;-74
2024/02/18 00:47:38;;;;;;;29.33;20.20;;;;;;;9.36;100.00;103299.00;4995501;28;20264;-74
2024/02/18 00:50:04;;;;;;;28.70;20.90;;;;;;;8.63;100.00;103184.78;5000652;28;20489;-74
2024/02/18 00:52:30;;;;;;;31.63;22.67;;;;;;;8.50;100.00;103184.94;5014395;28;20177;-74
2024/02/18 00:54:55;;;;;;;26.37;19.13;;;;;;;9.14;100.00;103264.31;5013894;28;20436;-74
2024/02/18 00:57:21;;;;;;;30.23;22.73;;;;;;;9.18;100.00;103252.38;5014139;28;20246;-74
2024/02/18 00:59:46;;;;;;;30.43;22.10;;;;;;;9.05;100.00;103247.19;5011586;28;20238;-74
2024/02/18 01:02:12;;;;;;;30.03;21.70;;;;;;;9.07;100.00;103231.03;5014877;28;20188;-74
2024/02/18 01:04:38;;;;;;;28.73;20.43;;;;;;;8.99;100.00;103245.03;4998096;28;20251;-74
2024/02/18 01:07:04;;;;;;;35.30;23.13;;;;;;;9.23;100.00;103301.03;5017274;28;20192;-74
2024/02/18 01:09:29;;;;;;;29.00;21.27;;;;;;;9.21;100.00;103252.97;5013041;28;20476;-74
2024/02/18 01:11:55;;;;;;;30.67;21.60;;;;;;;9.10;100.00;103231.59;5014962;28;21100;-74
2024/02/18 01:14:23;;;;;;;30.20;22.63;;;;;;;9.42;100.00;103278.88;5013237;28;20200;-74
2024/02/18 01:16:49;;;;;;;30.13;22.30;;;;;;;9.34;100.00;103254.59;5012359;28;20187;-73
2024/02/18 01:19:14;;;;;;;30.20;21.67;;;;;;;9.29;100.00;103241.59;5010499;28;21063;-74
2024/02/18 01:21:40;;;;;;;26.10;20.33;;;;;;;9.34;100.00;103251.91;5009847;28;20529;-74
2024/02/18 01:24:08;;;;;;;28.70;21.17;;;;;;;9.06;100.00;103192.69;5014400;28;20191;-74
2024/02/18 01:26:33;;;;;;;27.50;21.87;;;;;;;8.68;100.00;103140.59;5012005;28;20209;-74
2024/02/18 01:28:58;;;;;;;34.17;22.80;;;;;;;9.47;100.00;103271.31;5012669;28;20470;-73
2024/02/18 01:31:24;;;;;;;31.87;22.17;;;;;;;8.36;100.00;103087.09;5016044;28;20204;-74
2024/02/18 01:33:49;;;;;;;33.00;23.53;;;;;;;9.37;100.00;103265.88;5016581;28;20192;-74
2024/02/18 01:36:15;;;;;;;30.07;22.33;;;;;;;9.31;100.00;103242.28;5013272;28;20602;-74
2024/02/18 01:38:40;;;;;;;30.50;23.50;;;;;;;8.73;100.00;103159.78;5013583;28;20192;-74
2024/02/18 01:41:05;;;;;;;33.50;23.53;;;;;;;8.83;100.00;103157.19;4998898;28;20207;-74
2024/02/18 01:43:32;;;;;;;37.03;24.03;;;;;;;9.10;100.00;103193.28;5017083;28;20260;-74
2024/02/18 01:45:57;;;;;;;30.10;22.23;;;;;;;9.19;100.00;103185.28;5013688;28;20272;-75
2024/02/18 01:48:23;;;;;;;29.17;22.67;;;;;;;9.53;100.00;103232.44;5014695;28;20534;-73
2024/02/18 01:50:52;;;;;;;25.07;21.13;;;;;;;9.28;100.00;103213.94;5013222;28;20639;-73
2024/02/18 01:53:19;;;;;;;34.40;23.30;;;;;;;9.51;100.00;103248.63;5013834;28;20812;-73
2024/02/18 01:55:45;;;;;;;33.03;20.40;;;;;;;9.41;100.00;103245.91;5014494;28;20493;-72
2024/02/18 01:58:11;;;;;;;31.63;22.93;;;;;;;9.40;100.00;103246.88;5008126;28;20534;-73
2024/02/18 02:00:39;;;;;;;26.07;21.90;;;;;;;8.98;100.00;103163.06;5015009;28;20542;-73
2024/02/18 02:03:04;;;;;;;28.17;21.53;;;;;;;9.43;100.00;103240.38;5015132;28;20921;-73
2024/02/18 02:05:31;;;;;;;30.47;22.47;;;;;;;8.66;100.00;103102.44;5010365;28;20436;-72
2024/02/18 02:07:57;;;;;;;32.87;22.90;;;;;;;9.28;100.00;103213.09;5013029;28;20198;-72
2024/02/18 02:10:23;;;;;;;30.43;22.97;;;;;;;9.48;100.00;103230.97;5012925;28;20537;-73
2024/02/18 02:12:49;;;;;;;30.67;23.40;;;;;;;9.51;100.00;103240.59;5015710;28;21317;-73
2024/02/18 02:15:15;;;;;;;26.43;21.27;;;;;;;9.46;100.00;103250.88;5014529;28;20187;-73
2024/02/18 02:17:40;;;;;;;32.30;23.53;;;;;;;9.36;100.00;103215.13;4994242;28;20513;-73
2024/02/18 02:20:10;;;;;;;27.27;21.37;;;;;;;9.46;100.00;103234.81;5012453;28;20237;-73
2024/02/18 02:22:36;;;;;;;30.23;22.70;;;;;;;9.34;100.00;103219.75;5010254;28;20188;-73
2024/02/18 02:25:02;;;;;;;32.27;23.20;;;;;;;9.52;100.00;103231.59;5012469;28;20523;-73
2024/02/18 02:27:40;;;;;;;31.67;24.23;;;;;;;9.15;100.00;103188.38;5013403;28;20521;-73
2024/02/18 02:30:06;;;;;;;29.03;22.60;;;;;;;9.38;100.00;103231.94;5010125;28;20834;-73
2024/02/18 02:32:32;;;;;;;29.60;23.03;;;;;;;9.10;100.00;103155.78;5012700;28;20478;-73
2024/02/18 02:34:58;;;;;;;29.87;22.60;;;;;;;9.24;100.00;103177.72;5010645;28;20447;-74
2024/02/18 02:37:24;;;;;;;29.27;23.03;;;;;;;9.57;100.00;103220.44;5012801;28;20435;-73
2024/02/18 02:39:50;;;;;;;29.97;20.63;;;;;;;9.14;100.00;103167.91;5011414;28;20964;-73
2024/02/18 02:42:16;;;;;;;32.90;21.83;;;;;;;9.36;100.00;103196.38;5010991;28;20484;-72
2024/02/18 02:44:42;;;;;;;28.23;21.00;;;;;;;9.41;100.00;103195.00;5009863;28;20455;-73
2024/02/18 02:47:07;;;;;;;35.17;21.93;;;;;;;9.55;100.00;103209.88;5012511;28;20435;-73
2024/02/18 02:49:33;;;;;;;32.97;22.40;;;;;;;9.39;100.00;103174.69;5013281;28;20211;-73
2024/02/18 02:51:58;;;;;;;33.20;20.50;;;;;;;9.51;100.00;103189.69;5012126;28;20651;-73
2024/02/18 02:54:24;;;;;;;27.30;20.53;;;;;;;9.36;100.00;103156.22;5013844;28;20192;-72
2024/02/18 02:56:49;;;;;;;27.83;19.37;;;;;;;9.26;100.00;103135.59;5009010;28;20194;-74
2024/02/18 02:59:14;;;;;;;25.80;19.50;;;;;;;9.36;100.00;103127.59;4992872;28;20227;-73
2024/02/18 03:01:40;;;;;;;33.67;20.40;;;;;;;9.53;100.00;103163.63;5007959;28;20180;-73
2024/02/18 03:04:05;;;;;;;34.30;20.17;;;;;;;9.55;100.00;103161.66;5009787;28;20192;-73
2024/02/18 03:06:30;;;;;;;29.63;19.63;;;;;;;8.70;100.00;103015.56;5012125;28;20189;-72
2024/02/18 03:08:58;;;;;;;25.50;19.57;;;;;;;9.35;100.00;103100.97;5008708;28;20243;-73
2024/02/18 03:11:24;;;;;;;24.67;18.07;;;;;;;9.11;100.00;103069.97;5015643;28;20212;-73
2024/02/18 03:13:49;;;;;;;29.67;19.33;;;;;;;9.03;100.00;103054.59;5009279;28;20481;-74
2024/02/18 03:16:15;;;;;;;26.50;18.97;;;;;;;9.49;100.00;103146.13;5011295;28;20251;-73
2024/02/18 03:18:42;;;;;;;27.63;18.43;;;;;;;9.48;100.00;103121.13;4998423;28;20246;-72
2024/02/18 03:21:08;;;;;;;26.40;17.87;;;;;;;9.47;100.00;103107.91;4993465;28;20625;-73
2024/02/18 03:23:34;;;;;;;27.43;17.40;;;;;;;9.21;100.00;103073.53;5016589;28;20439;-74
2024/02/18 03:25:59;;;;;;;22.03;16.80;;;;;;;9.46;100.00;103095.50;5016634;28;20193;-72
2024/02/18 03:28:25;;;;;;;26.00;17.03;;;;;;;8.82;100.00;102995.78;5013955;28;20181;-74
2024/02/18 03:30:51;;;;;;;22.17;16.80;;;;;;;9.39;100.00;103097.00;5018025;28;20262;-72
2024/02/18 03:33:20;;;;;;;24.40;16.80;;;;;;;8.90;100.00;102994.25;5017117;28;20435;-73
2024/02/18 03:35:46;;;;;;;26.33;16.63;;;;;;;9.38;100.00;103092.66;5019056;28;20517;-73
2024/02/18 03:38:12;;;;;;;25.20;16.90;;;;;;;9.13;100.00;103016.31;5016076;28;20925;-73
2024/02/18 03:40:37;;;;;;;23.17;15.83;;;;;;;9.51;100.00;103083.34;5018910;28;20474;-72
2024/02/18 03:43:04;;;;;;;23.87;15.90;;;;;;;9.40;100.00;103062.06;5015784;28;20192;-73
2024/02/18 03:45:29;;;;;;;22.47;14.63;;;;;;;9.13;100.00;103011.78;5017667;28;20195;-72
2024/02/18 03:47:55;;;;;;;21.77;14.93;;;;;;;9.59;100.00;103060.41;5015568;28;20432;-73
2024/02/18 03:50:20;;;;;;;22.20;15.07;;;;;;;9.55;100.00;103041.09;5015552;28;20242;-73
2024/02/18 03:52:46;;;;;;;26.73;14.40;;;;;;;9.44;100.00;103030.50;5016053;28;20215;-73
2024/02/18 03:55:13;;;;;;;25.03;13.80;;;;;;;9.46;100.00;103034.72;5002938;28;20189;-73
2024/02/18 03:57:40;;;;;;;21.87;14.87;;;;;;;9.60;100.00;103046.84;5014352;28;20205;-73
2024/02/18 04:00:06;;;;;;;23.50;13.43;;;;;;;9.40;100.00;103007.63;4997486;28;20455;-73
2024/02/18 04:02:35;;;;;;;23.77;14.83;;;;;;;9.57;100.00;103025.69;5016096;28;20518;-74
2024/02/18 04:05:03;;;;;;;21.50;13.00;;;;;;;9.64;100.00;103032.22;5013410;28;20827;-73
2024/02/18 04:07:31;;;;;;;22.90;13.00;;;;;;;9.55;100.00;103016.97;5002252;28;20435;-73
2024/02/18 04:09:56;;;;;;;17.80;11.77;;;;;;;9.30;100.00;102969.28;5013647;28;20499;-74
2024/02/18 04:12:22;;;;;;;18.90;10.90;;;;;;;9.59;100.00;103020.22;5015788;28;20544;-73
2024/02/18 04:14:48;;;;;;;19.43;12.33;;;;;;;9.45;100.00;102984.78;5020559;28;20189;-73
2024/02/18 04:17:16;;;;;;;21.53;11.93;;;;;;;9.37;100.00;102968.56;5015396;28;20435;-73
2024/02/18 04:19:42;;;;;;;19.10;10.97;;;;;;;9.18;100.00;102928.38;5014002;28;20469;-73
2024/02/18 04:22:07;;;;;;;21.87;11.60;;;;;;;9.17;100.00;102924.88;5000447;28;20432;-73
2024/02/18 04:24:35;;;;;;;17.63;11.10;;;;;;;9.44;100.00;102980.44;5017275;28;20183;-73
2024/02/18 04:27:01;;;;;;;16.10;10.00;;;;;;;9.60;100.00;102998.63;5018407;28;20184;-74
2024/02/18 04:29:27;;;;;;;18.07;10.53;;;;;;;9.02;100.00;102940.44;5025863;23;20548;-73
2024/02/18 04:31:52;;;;;;;19.03;10.60;;;;;;;7.08;100.00;102588.75;5000289;28;20197;-73
2024/02/18 04:34:18;;;;;;;16.23;10.20;;;;;;;7.34;100.00;102643.38;5024019;28;20438;-74
2024/02/18 04:36:47;;;;;;;20.20;9.53;;;;;;;9.65;100.00;103035.72;5006016;28;20630;-73
2024/02/18 04:39:12;;;;;;;20.17;10.10;;;;;;;6.29;100.00;102490.63;5013752;28;20216;-73
2024/02/18 04:41:37;;;;;;;19.33;9.43;;;;;;;6.03;100.00;102405.75;5005277;28;20444;-73
2024/02/18 04:44:03;;;;;;;17.03;10.13;;;;;;;7.38;100.00;102633.31;5023209;28;20232;-73
2024/02/18 04:46:29;;;;;;;18.50;9.80;;;;;;;7.70;100.00;102713.28;5011655;28;20331;-73
2024/02/18 04:48:56;;;;;;;20.40;8.70;;;;;;;8.10;100.00;102760.50;5020460;28;20258;-73
2024/02/18 04:51:22;;;;;;;20.20;9.83;;;;;;;6.77;100.00;102564.75;5010469;28;20207;-73
2024/02/18 04:53:47;;;;;;;13.50;8.57;;;;;;;7.24;100.00;102623.81;5002732;28;20452;-73
2024/02/18 04:56:15;;;;;;;14.43;7.97;;;;;;;7.00;100.00;102576.94;5023665;28;20427;-73
2024/02/18 04:58:41;;;;;;;16.80;9.37;;;;;;;7.66;100.00;102691.31;5021077;28;20300;-73
2024/02/18 05:01:10;;;;;;;15.63;8.20;;;;;;;7.96;100.00;102737.69;5006745;28;20548;-74
2024/02/18 05:03:35;;;;;;;17.70;9.20;;;;;;;8.01;100.00;102715.91;5024086;28;20188;-73
2024/02/18 05:06:01;;;;;;;16.20;7.27;;;;;;;6.03;100.00;102413.75;5023901;28;20428;-73
2024/02/18 05:08:26;;;;;;;17.80;9.00;;;;;;;8.68;100.00;102824.91;5021740;28;20239;-74
2024/02/18 05:10:52;;;;;;;22.20;8.70;;;;;;;8.83;100.00;102868.16;5005273;28;20239;-73
2024/02/18 05:13:17;;;;;;;20.23;8.63;;;;;;;8.72;100.00;102857.56;5024061;28;20224;-74
2024/02/18 05:15:43;;;;;;;14.43;8.47;;;;;;;9.05;100.00;102891.16;5003265;28;20192;-73
2024/02/18 05:18:08;;;;;;;17.83;8.33;;;;;;;9.09;100.00;102895.25;5022006;28;20215;-75
2024/02/18 05:20:33;;;;;;;16.40;9.20;;;;;;;8.96;100.00;102866.06;5023007;28;20185;-74
2024/02/18 05:22:59;;;;;;;16.00;7.90;;;;;;;8.49;100.00;102792.75;5025464;28;20193;-73
2024/02/18 05:25:25;;;;;;;18.07;8.10;;;;;;;8.30;100.00;102773.00;5005511;28;20184;-74
2024/02/18 05:27:51;;;;;;;14.20;7.77;;;;;;;8.91;100.00;102860.31;5023755;28;20205;-73
2024/02/18 05:30:16;;;;;;;13.47;7.50;;;;;;;8.86;100.00;102840.28;5014623;28;20212;-74
2024/02/18 05:32:41;;;;;;;13.83;7.47;;;;;;;8.66;100.00;102792.09;5007393;28;20953;-73
2024/02/18 05:35:07;;;;;;;15.73;7.70;;;;;;;9.22;100.00;102887.78;5019731;28;20589;-73
2024/02/18 05:37:33;;;;;;;12.40;6.57;;;;;;;8.85;100.00;102817.16;5023908;28;20729;-74
2024/02/18 05:39:58;;;;;;;20.20;7.30;;;;;;;9.19;100.00;102874.69;4999816;28;20189;-73
2024/02/18 05:42:23;;;;;;;15.00;7.80;;;;;;;9.30;100.00;102907.69;5022914;28;20192;-74
2024/02/18 05:44:49;;;;;;;10.93;7.00;;;;;;;8.85;100.00;102833.22;5022500;28;20192;-73
2024/02/18 05:47:15;;;;;;;16.20;6.73;;;;;;;8.48;100.00;102745.63;5007686;28;20189;-73
2024/02/18 05:49:40;;;;;;;13.53;6.67;;;;;;;9.27;100.00;102882.88;5024863;28;20551;-73
2024/02/18 05:52:06;;;;;;;16.90;6.30;;;;;;;8.62;100.00;102793.38;5006308;28;20238;-73
2024/02/18 05:54:31;;;;;;;12.63;6.60;;;;;;;9.32;100.00;102873.59;5007539;28;20604;-73
2024/02/18 05:56:56;;;;;;;12.97;6.27;;;;;;;9.24;100.00;102852.84;5019508;28;20188;-73
2024/02/18 05:59:22;;;;;;;12.93;6.50;;;;;;;9.02;100.00;102795.91;5021244;28;20279;-74
2024/02/18 06:01:47;;;;;;;12.27;5.80;;;;;;;8.74;100.00;102756.63;5019894;28;20564;-74
2024/02/18 06:04:13;;;;;;;11.50;5.57;;;;;;;8.85;100.00;102777.03;5021547;28;20196;-74
2024/02/18 06:06:38;;;;;;;13.80;6.23;;;;;;;9.20;100.00;102824.66;5018323;28;20201;-73
2024/02/18 06:09:04;;;;;;;14.67;6.50;;;;;;;9.45;100.00;102876.81;5019726;28;20259;-73
2024/02/18 06:11:30;;;;;;;9.93;5.93;;;;;;;9.07;100.00;102802.69;5020674;28;20209;-74
2024/02/18 06:13:56;;;;;;;11.03;5.97;;;;;;;8.44;100.00;102699.56;5020963;28;20489;-74
2024/02/18 06:16:21;;;;;;;14.40;6.20;;;;;;;8.58;100.00;102735.75;5021535;28;20192;-73
2024/02/18 06:18:46;;;;;;;13.30;6.00;;;;;;;8.70;100.00;102731.13;5019669;28;20223;-73
2024/02/18 06:21:21;;;;;;;9.60;5.50;;;;;;;9.41;100.00;102854.81;5010912;28;20241;-73
2024/02/18 06:23:47;;;;;;;13.93;5.90;;;;;;;8.21;100.00;102650.81;5022135;28;20191;-73
2024/02/18 06:26:14;;;;;;;11.53;4.90;;;;;;;8.41;100.00;102693.66;5021326;28;20869;-73
2024/02/18 06:28:40;;;;;;;11.37;5.10;;;;;;;8.32;100.00;102666.72;5002887;28;20464;-73
2024/02/18 06:31:06;;;;;;;12.10;4.93;;;;;;;9.42;100.00;102858.34;5002711;28;20477;-73
2024/02/18 06:33:31;;;;;;;14.20;4.50;;;;;;;9.42;100.00;102851.16;5019906;28;20291;-74
2024/02/18 06:35:57;;;;;;;10.60;4.83;;;;;;;9.00;100.00;102789.88;5009173;28;20189;-73
2024/02/18 06:38:22;;;;;;;8.70;4.10;;;;;;;9.16;100.00;102801.84;5007298;28;20204;-74
2024/02/18 06:40:47;;;;;;;13.07;4.73;;;;;;;8.12;100.00;102611.56;5023536;28;20251;-73
2024/02/18 06:43:13;;;;;;;11.00;3.90;;;;;;;8.33;100.00;102665.75;5003234;28;20188;-74
2024/02/18 06:45:38;;;;;;;12.27;5.30;;;;;;;9.27;100.00;102821.28;5022410;28;20196;-74
2024/02/18 06:48:04;;;;;;;12.17;4.40;;;;;;;9.39;100.00;102840.72;5005559;28;20219;-73
2024/02/18 06:50:30;;;;;;;11.63;4.27;;;;;;;8.36;100.00;102673.50;5003731;28;20207;-74
2024/02/18 06:52:55;;;;;;;13.37;3.53;;;;;;;8.80;100.00;102740.84;5003903;28;20432;-74
2024/02/18 06:55:21;;;;;;;10.70;3.53;;;;;;;8.68;100.00;102723.25;5023060;28;20179;-73
2024/02/18 06:57:46;;;;;;;12.23;3.27;;;;;;;8.15;100.00;102632.66;5010903;28;20205;-73
2024/02/18 07:00:12;;;;;;;9.10;4.23;;;;;;;9.14;100.00;102819.88;5010683;28;20182;-73
2024/02/18 07:02:38;;;;;;;12.30;3.83;;;;;;;9.32;100.00;102833.41;5024914;28;20195;-74
2024/02/18 07:05:04;;;;;;;11.17;4.53;;;;;;;9.33;100.00;102830.56;5024575;28;20481;-73
2024/02/18 07:07:30;;;;;;;8.83;3.83;;;;;;;8.44;100.00;102680.00;5021293;28;20700;-73
2024/02/18 07:09:55;;;;;;;11.00;3.70;;;;;;;8.37;100.00;102680.53;5012598;28;20545;-73
2024/02/18 07:12:20;;;;;;;10.43;4.00;;;;;;;9.19;100.00;102809.59;5025004;28;20193;-73
2024/02/18 07:14:46;;;;;;;10.13;4.67;;;;;;;9.01;100.00;102777.31;5021730;28;20204;-73
2024/02/18 07:17:12;;;;;;;12.97;4.67;;;;;;;9.14;100.00;102791.28;5024882;28;20264;-73
2024/02/18 07:19:38;;;;;;;9.60;4.23;;;;;;;8.51;100.00;102710.56;5003418;28;20185;-74
2024/02/18 07:22:04;;;;;;;13.43;4.07;;;;;;;8.47;100.00;102690.41;5005138;28;20945;-73
2024/02/18 07:24:29;;;;;;;11.97;4.20;;;;;;;8.14;100.00;102655.88;5025543;28;20184;-73
2024/02/18 07:26:55;;;;;;;12.67;4.53;;;;;;;9.28;100.00;102812.25;5025527;28;20449;-73
2024/02/18 07:29:20;;;;;;;11.77;4.23;;;;;;;8.73;100.00;102744.22;5027810;28;20207;-73
2024/02/18 07:31:46;;;;;;;11.77;4.90;;;;;;;7.70;100.00;102583.22;5005147;28;20294;-73
2024/02/18 07:34:11;;;;;;;10.67;4.73;;;;;;;9.10;100.00;102819.31;5026860;28;20327;-73
2024/02/18 07:36:38;;;;;;;12.30;4.60;;;;;;;8.85;100.00;102772.50;5024786;28;20234;-73
2024/02/18 07:39:04;;;;;;;9.67;4.90;;;;;;;8.77;100.00;102742.97;5005186;28;20282;-73
2024/02/18 07:41:29;;;;;;;14.37;4.40;;;;;;;8.90;100.00;102770.28;5014392;28;20919;-73
2024/02/18 07:43:55;;;;;;;11.13;4.57;;;;;;;9.19;100.00;102809.59;5007141;28;20196;-73
2024/02/18 07:46:20;;;;;;;10.93;5.37;;;;;;;8.22;100.00;102647.16;5023850;28;20279;-73
2024/02/18 07:48:45;;;;;;;12.37;5.10;;;;;;;8.94;100.00;102766.34;5025194;28;20196;-73
2024/02/18 07:51:11;;;;;;;12.03;4.97;;;;;;;8.46;100.00;102689.56;5025251;28;20212;-73
2024/02/18 07:53:36;;;;;;;13.13;4.77;;;;;;;8.58;100.00;102711.69;5011637;28;20211;-74
2024/02/18 07:56:03;;;;;;;14.80;5.13;;;;;;;9.12;100.00;102785.22;5022814;28;20181;-73
2024/02/18 07:58:28;;;;;;;13.50;4.67;;;;;;;8.08;100.00;102612.81;5009464;28;20200;-73
2024/02/18 08:00:56;;;;;;;12.30;5.07;;;;;;;9.15;100.00;102781.41;5008679;28;20442;-73
2024/02/18 08:03:22;;;;;;;10.67;4.90;;;;;;;8.99;100.00;102763.22;5024567;28;20652;-73
2024/02/18 08:05:47;;;;;;;12.67;5.23;;;;;;;8.84;100.00;102738.72;5007491;28;20432;-74
2024/02/18 08:08:12;;;;;;;12.00;4.60;;;;;;;8.09;100.00;102615.34;5005846;28;20201;-73
2024/02/18 08:10:38;;;;;;;11.40;4.60;;;;;;;8.53;100.00;102688.06;5005076;28;20209;-73
2024/02/18 08:13:03;;;;;;;12.80;5.30;;;;;;;8.94;100.00;102765.47;5012921;28;20180;-74
2024/02/18 08:15:29;;;;;;;19.00;5.67;;;;;;;8.92;100.00;102762.97;5023828;28;20222;-73
2024/02/18 08:17:54;;;;;;;13.80;5.30;;;;;;;8.29;100.00;102613.53;5008615;28;20212;-73
2024/02/18 08:20:19;;;;;;;12.83;5.00;;;;;;;8.42;100.00;102636.50;5028862;28;20507;-73
2024/02/18 08:22:45;;;;;;;14.60;4.87;;;;;;;8.28;100.00;102617.19;5023568;28;20230;-73
2024/02/18 08:25:10;;;;;;;12.10;4.87;;;;;;;8.38;100.00;102657.31;5012265;28;20549;-74
2024/02/18 08:27:36;;;;;;;13.63;5.20;;;;;;;9.18;100.00;102775.78;5023439;28;20297;-73
2024/02/18 08:30:02;;;;;;;11.83;5.07;;;;;;;9.19;100.00;102753.34;5024142;28;20212;-74
2024/02/18 08:32:27;;;;;;;13.70;5.40;;;;;;;8.57;100.00;102664.53;5009718;28;20184;-74
2024/02/18 08:34:52;;;;;;;13.60;5.23;;;;;;;8.42;100.00;102623.13;5020653;28;20197;-74
2024/02/18 08:37:18;;;;;;;14.43;5.30;;;;;;;7.83;100.00;102539.38;5004777;28;20197;-73
2024/02/18 08:39:43;;;;;;;14.80;4.97;;;;;;;8.27;100.00;102611.97;5022723;28;20572;-74
2024/02/18 08:42:08;;;;;;;12.13;4.70;;;;;;;8.91;100.00;102706.88;5024016;28;20207;-73
2024/02/18 08:44:36;;;;;;;14.00;5.60;;;;;;;9.18;100.00;102746.31;5002887;28;20180;-73
2024/02/18 08:47:01;;;;;;;14.60;5.70;;;;;;;8.44;100.00;102631.88;5004690;28;20193;-73
2024/02/18 08:49:27;;;;;;;13.30;5.53;;;;;;;8.46;100.00;102628.06;5019339;28;20467;-73
2024/02/18 08:51:54;;;;;;;14.97;6.10;;;;;;;8.20;100.00;102582.31;5021627;28;20227;-73
2024/02/18 08:54:19;;;;;;;13.40;5.67;;;;;;;8.26;100.00;102597.78;5005206;28;20256;-73
2024/02/18 08:56:45;;;;;;;17.40;5.63;;;;;;;8.19;100.00;102590.44;5008828;28;20430;-73
2024/02/18 08:59:10;;;;;;;12.37;5.30;;;;;;;8.82;100.00;102692.53;5028028;28;20211;-73
2024/02/18 09:01:36;;;;;;;13.03;5.70;;;;;;;8.28;100.00;102606.50;5026294;28;20260;-73
2024/02/18 09:04:01;;;;;;;15.63;6.00;;;;;;;8.63;100.00;102661.28;5025205;28;20196;-73
2024/02/18 09:06:27;;;;;;;14.60;5.30;;;;;;;8.33;100.00;102633.69;5023679;28;20204;-73
2024/02/18 09:08:54;;;;;;;14.03;5.60;;;;;;;7.96;100.00;102572.03;5006771;28;20628;-73
2024/02/18 09:11:19;;;;;;;14.80;6.03;;;;;;;9.08;100.00;102754.34;5020360;28;21250;-73
2024/02/18 09:13:45;;;;;;;12.30;5.13;;;;;;;8.70;100.00;102693.66;5020115;28;20435;-75
2024/02/18 09:16:10;;;;;;;11.27;5.40;;;;;;;7.78;100.00;102563.84;5021564;28;20541;-73
2024/02/18 09:18:37;;;;;;;18.50;6.23;;;;;;;8.69;100.00;102710.72;5022773;28;20200;-73
2024/02/18 09:21:03;;;;;;;16.63;5.20;;;;;;;8.74;100.00;102721.84;5010001;28;20238;-73
2024/02/18 09:23:28;;;;;;;13.97;5.53;;;;;;;8.45;100.00;102682.53;5007267;28;21109;-73
2024/02/18 09:25:55;;;;;;;18.80;6.30;;;;;;;8.05;100.00;102605.94;5007531;28;20439;-73
2024/02/18 09:28:20;;;;;;;14.60;5.90;;;;;;;8.45;100.00;102669.19;5004285;28;20211;-73
2024/02/18 09:30:46;;;;;;;12.27;5.23;;;;;;;8.37;100.00;102667.16;5022120;28;20467;-73
2024/02/18 09:33:11;;;;;;;13.40;5.30;;;;;;;7.92;100.00;102583.97;5024153;28;20195;-73
2024/02/18 09:35:36;;;;;;;10.50;4.67;;;;;;;8.58;100.00;102714.34;5024090;28;20196;-73
2024/02/18 09:38:08;;;;;;;14.73;5.53;;;;;;;8.71;100.00;102708.75;5004797;28;20200;-73
2024/02/18 09:40:37;;;;;;;13.67;5.63;;;;;;;8.89;100.00;102735.63;5022043;28;20645;-73
2024/02/18 09:43:03;;;;;;;12.53;5.37;;;;;;;9.02;100.00;102753.06;5021484;28;20436;-74
2024/02/18 09:45:32;;;;;;;8.40;4.40;;;;;;;8.39;100.00;102643.00;5019510;28;20438;-73
2024/02/18 09:48:01;;;;;;;10.37;4.80;;;;;;;9.03;100.00;102780.72;5010427;28;20215;-73
2024/02/18 09:50:31;;;;;;;11.03;4.50;;;;;;;7.96;100.00;102585.38;5006499;28;20464;-73
2024/02/18 09:52:57;;;;;;;13.90;5.50;;;;;;;9.04;100.00;102763.66;5004321;28;20432;-74
2024/02/18 09:55:22;;;;;;;12.60;4.87;;;;;;;8.14;100.00;102605.09;5009274;28;20447;-73
2024/02/18 09:57:47;;;;;;;12.33;4.47;;;;;;;7.97;100.00;102579.06;5005671;28;20246;-73
2024/02/18 10:00:14;;;;;;;10.43;4.70;;;;;;;8.80;100.00;102711.41;5003972;28;20689;-73
2024/02/18 10:02:41;;;;;;;10.13;4.27;;;;;;;9.09;100.00;102740.00;5019695;28;20193;-73
2024/02/18 10:05:07;;;;;;;12.33;4.60;;;;;;;8.05;100.00;102613.94;5006078;28;20440;-73
2024/02/18 10:07:32;;;;;;;8.43;3.90;;;;;;;8.18;100.00;102591.44;5002835;28;20448;-73
2024/02/18 10:10:01;;;;;;;9.67;4.00;;;;;;;8.21;100.00;102585.81;5019427;28;20467;-73
2024/02/18 10:12:29;;;;;;;10.13;3.47;;;;;;;9.03;100.00;102749.44;5007196;28;20675;-74
2024/02/18 10:15:01;;;;;;;9.83;3.70;;;;;;;8.94;100.00;102709.28;5020208;28;20443;-74
2024/02/18 10:17:27;;;;;;;10.37;3.90;;;;;;;8.06;100.00;102558.66;5003961;28;20849;-74
2024/02/18 10:19:52;;;;;;;12.60;4.23;;;;;;;8.52;100.00;102637.34;5005043;28;20771;-73
2024/02/18 10:22:21;;;;;;;11.70;3.37;;;;;;;8.19;100.00;102561.91;5022807;28;20432;-73
2024/02/18 10:24:47;;;;;;;10.13;3.63;;;;;;;7.82;100.00;102508.31;5007201;28;20215;-75
2024/02/18 10:27:12;;;;;;;12.50;4.50;;;;;;;8.24;100.00;102573.00;5010159;28;20462;-74
2024/02/18 10:29:38;;;;;;;13.63;3.43;;;;;;;8.38;100.00;102577.94;5021893;28;20318;-73
2024/02/18 10:32:06;;;;;;;8.83;3.30;;;;;;;8.07;100.00;102517.56;5023008;28;20322;-73
2024/02/18 10:34:32;;;;;;;10.73;3.70;;;;;;;8.04;100.00;102488.47;5020644;28;20444;-74
2024/02/18 10:37:07;;;;;;;10.27;3.20;;;;;;;8.19;100.00;102513.78;5028268;28;20443;-74
2024/02/18 10:39:34;;;;;;;12.20;4.40;;;;;;;8.82;100.00;102634.53;5024853;28;20770;-73
2024/02/18 10:42:05;;;;;;;9.27;3.63;;;;;;;8.46;100.00;102544.31;5028190;28;20439;-73
2024/02/18 10:44:34;;;;;;;7.30;3.40;;;;;;;7.97;100.00;102458.81;5008168;28;20464;-74
2024/02/18 10:47:00;;;;;;;8.93;4.00;;;;;;;8.17;100.00;102509.56;5026930;28;20446;-73
2024/02/18 10:49:37;;;;;;;8.80;3.10;;;;;;;8.09;100.00;102486.22;5024655;28;20456;-73
2024/02/18 10:52:09;;;;;;;10.57;3.57;;;;;;;8.22;100.00;102497.47;5022310;28;20487;-73
2024/02/18 10:54:57;;;;;;;9.93;3.20;;;;;;;9.08;100.00;102619.66;5013971;28;20979;-73
2024/02/18 10:57:26;;;;;;;10.30;3.40;;;;;;;9.00;100.00;102620.41;5026460;28;20422;-73
2024/02/18 11:00:11;;;;;;;8.40;3.20;;;;;;;8.89;100.00;102597.31;5023917;28;20811;-74
2024/02/18 11:02:47;;;;;;;8.13;3.40;;;;;;;8.92;100.00;102599.69;5023745;28;20513;-73
2024/02/18 11:05:13;;;;;;;10.23;3.30;;;;;;;8.28;100.00;102488.88;5022473;28;20427;-74
2024/02/18 11:07:41;;;;;;;8.57;3.50;;;;;;;8.21;100.00;102466.34;5023809;28;20694;-73
2024/02/18 11:10:08;;;;;;;6.67;3.20;;;;;;;7.83;100.00;102397.78;5010904;28;20794;-73